Cloverleaf, Texas
Current Conditions -  °F | °C
As of 9:50 PM on Wednesday 28 Jan 2015 (Local Time) from KEFD Reporting Station
Moderate Fog Moderate Fog  
Wind Chill: 61°   Ceiling: Unl
Heat Index: 61°   Visibility: 0.37mi
Dew Point: 61°   Wind: 3mph
Humidity: 100%   Direction: 180°S
Pressure: 30.18"   Gusts: NA
Location:  29.77°N, 95.17°W
Report Text: KEFD 290350Z 18003KT 3/8SM FG FEW250 16/16 A3018
Loading
Personal Weather Stations






























Interactive Weather Map New forecast layout! Learn more

10-Day Weather Forecast

Advertisements
Track Severe Weather on mobile